createdAt,value
2022-09-10T00:00:05.495Z,12.19
2022-09-10T00:01:06.005Z,12.23
2022-09-10T00:02:05.898Z,12.16
2022-09-10T00:03:06.066Z,12.18
2022-09-10T00:04:05.969Z,12.18
2022-09-10T00:05:05.725Z,12.15
2022-09-10T00:06:05.942Z,12.08
2022-09-10T00:07:05.679Z,12.08
2022-09-10T00:08:05.671Z,12.08
2022-09-10T00:09:05.407Z,12.04
2022-09-10T00:10:05.648Z,12
2022-09-10T00:11:05.638Z,12.01
2022-09-10T00:12:05.621Z,12.03
2022-09-10T00:13:05.614Z,12.03
2022-09-10T00:14:05.867Z,12
2022-09-10T00:15:05.596Z,12
2022-09-10T00:16:05.658Z,12.03
2022-09-10T00:17:05.571Z,12.03
2022-09-10T00:18:05.835Z,11.97
2022-09-10T00:19:05.872Z,12.01
2022-09-10T00:20:05.293Z,12.03
2022-09-10T00:21:05.559Z,12.01
2022-09-10T00:22:05.526Z,12.05
2022-09-10T00:23:05.266Z,12.01
2022-09-10T00:24:05.256Z,12.07
2022-09-10T00:25:10.944Z,12.05
2022-09-10T00:26:05.233Z,11.98
2022-09-10T00:27:05.740Z,12.07
2022-09-10T00:28:05.717Z,12
2022-09-10T00:29:05.707Z,12.05
2022-09-10T00:30:05.187Z,12.07
2022-09-10T00:31:05.541Z,12.07
2022-09-10T00:32:05.422Z,12.13
2022-09-10T00:33:05.154Z,12.07
2022-09-10T00:34:05.396Z,12.05
2022-09-10T00:35:05.468Z,12.04
2022-09-10T00:36:05.376Z,12.07
2022-09-10T00:37:05.397Z,12.07
2022-09-10T00:38:05.101Z,12.05
2022-09-10T00:39:05.094Z,12.13
2022-09-10T00:40:05.578Z,12.04
2022-09-10T00:41:05.325Z,11.95
2022-09-10T00:42:05.057Z,12
2022-09-10T00:43:05.303Z,12.01
2022-09-10T00:44:05.324Z,12.04
2022-09-10T00:45:05.029Z,11.89
2022-09-10T00:46:05.463Z,12.04
2022-09-10T00:47:05.267Z,12.01
2022-09-10T00:48:05.510Z,11.98
2022-09-10T00:49:05.254Z,12.03
2022-09-10T00:50:04.981Z,12.03
2022-09-10T00:51:05.530Z,12
2022-09-10T00:52:04.959Z,11.98
2022-09-10T00:53:05.224Z,12.04
2022-09-10T00:54:05.198Z,12.03
2022-09-10T00:55:05.178Z,12
2022-09-10T00:56:05.167Z,12.01
2022-09-10T00:57:05.157Z,12.13
2022-09-10T00:58:05.147Z,12.13
2022-09-10T00:59:05.136Z,12
2022-09-10T01:00:04.873Z,12.1
2022-09-10T01:01:05.524Z,12.08
2022-09-10T01:02:05.309Z,12.13
2022-09-10T01:03:05.095Z,12.1
2022-09-10T01:04:05.356Z,12.11
2022-09-10T01:05:05.355Z,12.13
2022-09-10T01:06:05.330Z,12.1
2022-09-10T01:07:05.361Z,12.11
2022-09-10T01:08:04.791Z,12.04
2022-09-10T01:09:05.336Z,12.03
2022-09-10T01:10:05.030Z,12.08
2022-09-10T01:11:05.271Z,12.16
2022-09-10T01:12:06.915Z,12.13
2022-09-10T01:13:04.993Z,12.08
2022-09-10T01:14:05.243Z,12.08
2022-09-10T01:15:04.724Z,12.11
2022-09-10T01:16:05.452Z,12.07
2022-09-10T01:17:05.211Z,12.05
2022-09-10T01:18:04.681Z,12.11
2022-09-10T01:19:04.931Z,12.08
2022-09-10T01:20:05.177Z,12.13
2022-09-10T01:21:04.925Z,12.08
2022-09-10T01:22:04.644Z,12.04
2022-09-10T01:23:04.943Z,11.97
2022-09-10T01:24:04.883Z,12.03
2022-09-10T01:25:04.904Z,12.05
2022-09-10T01:26:05.115Z,12.01
2022-09-10T01:27:04.856Z,12.07
2022-09-10T01:28:05.099Z,12.04
2022-09-10T01:29:04.827Z,12.07
2022-09-10T01:30:04.823Z,11.94
2022-09-10T01:31:04.837Z,11.89
2022-09-10T01:32:04.797Z,12.04
2022-09-10T01:33:04.788Z,12
2022-09-10T01:34:04.818Z,12.03
2022-09-10T01:36:04.497Z,12.03
2022-09-10T01:37:05.019Z,11.95
2022-09-10T01:38:04.752Z,11.98
2022-09-10T01:39:04.790Z,11.89
2022-09-10T01:40:05.067Z,11.98
2022-09-10T01:41:04.982Z,12.04
2022-09-10T01:42:04.695Z,12
2022-09-10T01:43:04.696Z,12.05
2022-09-10T01:44:04.672Z,12.01
2022-09-10T01:45:04.678Z,12
2022-09-10T01:46:05.175Z,12.01
2022-09-10T01:47:04.643Z,12.03
2022-09-10T01:48:04.640Z,12.04
2022-09-10T01:49:04.625Z,12.07
2022-09-10T01:50:04.606Z,12.08
2022-09-10T01:51:04.605Z,12.08
2022-09-10T01:52:04.627Z,12.05
2022-09-10T01:53:04.581Z,12.16
2022-09-10T01:54:04.569Z,12.16
2022-09-10T01:55:04.882Z,12.2
2022-09-10T01:56:04.781Z,12.31
2022-09-10T01:57:04.563Z,12.29
2022-09-10T01:58:04.533Z,12.37
2022-09-10T01:59:04.776Z,12.43
2022-09-10T02:00:04.509Z,12.41
2022-09-10T02:01:04.930Z,12.43
2022-09-10T02:02:04.617Z,12.4
2022-09-10T02:03:04.213Z,12.55
2022-09-10T02:04:04.467Z,12.58
2022-09-10T02:05:04.711Z,12.56
2022-09-10T02:06:04.702Z,12.52
2022-09-10T02:07:04.713Z,12.53
2022-09-10T02:08:04.719Z,12.55
2022-09-10T02:09:04.670Z,12.56
2022-09-10T02:10:04.415Z,12.65
2022-09-10T02:11:04.442Z,12.63
2022-09-10T02:12:04.529Z,12.62
2022-09-10T02:13:04.658Z,12.65
2022-09-10T02:14:04.629Z,12.69
2022-09-10T02:15:04.405Z,12.66
2022-09-10T02:16:04.513Z,12.63
2022-09-10T02:17:04.070Z,12.62
2022-09-10T02:18:04.577Z,12.63
2022-09-10T02:19:04.316Z,12.61
2022-09-10T02:20:04.573Z,12.58
2022-09-10T02:21:04.291Z,12.56
2022-09-10T02:22:04.028Z,12.48
2022-09-10T02:23:04.539Z,12.48
2022-09-10T02:24:04.520Z,12.51
2022-09-10T02:25:04.255Z,12.44
2022-09-10T02:26:04.245Z,12.44
2022-09-10T02:27:04.536Z,12.4
2022-09-10T02:28:04.228Z,12.4
2022-09-10T02:29:04.247Z,12.43
2022-09-10T02:30:04.210Z,12.43
2022-09-10T02:31:04.196Z,12.43
2022-09-10T02:32:04.437Z,12.43
2022-09-10T02:33:04.171Z,12.52
2022-09-10T02:34:04.161Z,12.53
2022-09-10T02:35:03.894Z,12.59
2022-09-10T02:36:04.150Z,12.58
2022-09-10T02:37:04.130Z,12.58
2022-09-10T02:38:03.867Z,12.51
2022-09-10T02:39:04.374Z,12.55
2022-09-10T02:40:04.046Z,12.53
2022-09-10T02:41:03.835Z,12.55
2022-09-10T02:42:03.824Z,12.65
2022-09-10T02:43:04.118Z,12.58
2022-09-10T02:44:04.061Z,12.59
2022-09-10T02:45:04.332Z,12.7
2022-09-10T02:46:03.900Z,12.65
2022-09-10T02:47:04.284Z,12.63
2022-09-10T02:48:04.277Z,12.7
2022-09-10T02:49:04.010Z,12.69
2022-09-10T02:50:04.001Z,12.7
2022-09-10T02:51:03.992Z,12.74
2022-09-10T02:52:03.983Z,12.69
2022-09-10T02:53:03.969Z,12.7
2022-09-10T02:54:04.214Z,12.66
2022-09-10T02:55:03.951Z,12.63
2022-09-10T02:56:03.689Z,12.65
2022-09-10T02:57:03.930Z,12.63
2022-09-10T02:58:03.669Z,12.71
2022-09-10T02:59:03.960Z,12.62
2022-09-10T03:00:03.646Z,12.63
2022-09-10T03:01:04.060Z,12.63
2022-09-10T03:02:04.320Z,12.59
2022-09-10T03:03:07.628Z,12.61
2022-09-10T03:04:03.859Z,12.59
2022-09-10T03:05:03.669Z,12.59
2022-09-10T03:06:03.838Z,12.7
2022-09-10T03:07:03.836Z,12.66
2022-09-10T03:08:03.568Z,12.65
2022-09-10T03:09:04.067Z,12.7
2022-09-10T03:10:04.054Z,12.66
2022-09-10T03:11:03.533Z,12.73
2022-09-10T03:12:03.779Z,12.78
2022-09-10T03:13:03.521Z,12.73
2022-09-10T03:14:04.019Z,12.74
2022-09-10T03:15:04.059Z,12.74
2022-09-10T03:16:04.024Z,12.76
2022-09-10T03:17:04.058Z,12.83
2022-09-10T03:18:03.721Z,12.83
2022-09-10T03:19:03.966Z,12.89
2022-09-10T03:20:03.718Z,12.94
2022-09-10T03:21:03.696Z,12.92
2022-09-10T03:22:03.695Z,12.91
2022-09-10T03:23:03.417Z,12.99
2022-09-10T03:24:08.675Z,12.98
2022-09-10T03:25:03.909Z,12.96
2022-09-10T03:26:03.903Z,13.02
2022-09-10T03:27:03.373Z,12.94
2022-09-10T03:28:03.365Z,12.96
2022-09-10T03:29:03.614Z,12.95
2022-09-10T03:30:03.867Z,13.01
2022-09-10T03:31:03.642Z,12.95
2022-09-10T03:32:03.579Z,12.95
2022-09-10T03:33:03.855Z,12.98
2022-09-10T03:49:29.499Z,13.01
2022-09-10T03:50:29.162Z,13.01
2022-09-10T03:51:29.140Z,12.99
2022-09-10T03:52:28.882Z,12.96
2022-09-10T03:53:28.858Z,12.92
2022-09-10T03:54:29.105Z,12.96
2022-09-10T03:55:29.093Z,12.95
2022-09-10T03:56:28.824Z,12.94
2022-09-10T03:57:28.810Z,12.99
2022-09-10T03:58:29.060Z,12.96
2022-09-10T03:59:29.042Z,12.96
2022-09-10T04:00:29.298Z,12.92
2022-09-10T04:01:29.216Z,12.95
2022-09-10T04:02:29.276Z,13.01
2022-09-10T04:03:29.007Z,12.99
2022-09-10T04:04:28.995Z,13.01
2022-09-10T04:05:29.324Z,12.94
2022-09-10T04:06:28.969Z,12.95
2022-09-10T04:07:28.960Z,12.96
2022-09-10T04:08:28.948Z,12.84
2022-09-10T04:09:28.937Z,12.91
2022-09-10T04:10:28.688Z,12.89
2022-09-10T04:11:28.662Z,12.86
2022-09-10T04:12:28.910Z,12.84
2022-09-10T04:13:29.157Z,12.94
2022-09-10T04:14:28.889Z,12.92
2022-09-10T04:15:28.877Z,12.91
2022-09-10T04:16:28.987Z,12.91
2022-09-10T04:17:29.147Z,12.92
2022-09-10T04:18:29.104Z,12.86
2022-09-10T04:19:28.849Z,12.88
2022-09-10T04:20:28.829Z,12.86
2022-09-10T04:21:29.153Z,12.89
2022-09-10T04:22:28.550Z,12.83
2022-09-10T04:23:28.796Z,12.88
2022-09-10T04:24:28.788Z,12.84
2022-09-10T04:25:28.773Z,12.88
2022-09-10T04:26:28.770Z,12.89
2022-09-10T04:27:28.509Z,12.91
2022-09-10T04:28:28.746Z,12.92
2022-09-10T04:29:28.738Z,12.89
2022-09-10T04:30:28.986Z,12.83
2022-09-10T04:31:28.900Z,12.89
2022-09-10T04:32:28.969Z,12.86
2022-09-10T04:33:28.701Z,12.83
2022-09-10T04:34:28.689Z,12.86
2022-09-10T04:35:28.681Z,12.89
2022-09-10T04:36:28.926Z,12.88
2022-09-10T04:37:28.986Z,12.91
2022-09-10T04:38:28.907Z,12.84
2022-09-10T04:39:28.895Z,12.89
2022-09-10T04:40:28.368Z,12.89
2022-09-10T04:41:28.622Z,12.84
2022-09-10T04:42:28.866Z,12.83
2022-09-10T04:43:28.598Z,12.86
2022-09-10T04:44:28.590Z,12.81
2022-09-10T04:45:28.434Z,12.78
2022-09-10T04:46:28.314Z,12.74
2022-09-10T04:47:28.566Z,12.77
2022-09-10T04:48:28.296Z,12.8
2022-09-10T04:49:28.796Z,12.77
2022-09-10T04:50:28.537Z,12.76
2022-09-10T04:51:28.519Z,12.74
2022-09-10T04:52:28.517Z,12.74
2022-09-10T04:53:28.833Z,12.7
2022-09-10T04:54:28.748Z,12.77
2022-09-10T04:55:28.226Z,12.73
2022-09-10T04:56:28.476Z,12.74
2022-09-10T04:57:28.461Z,12.78
2022-09-10T04:58:28.708Z,12.74
2022-09-10T04:59:28.182Z,12.7
2022-09-10T05:00:28.434Z,12.76
2022-09-10T05:01:28.627Z,12.7
2022-09-10T05:02:28.613Z,12.73
2022-09-10T05:03:28.148Z,12.71
2022-09-10T05:04:28.394Z,12.73
2022-09-10T05:05:28.393Z,12.69
2022-09-10T05:06:28.375Z,12.74
2022-09-10T05:07:28.623Z,12.7
2022-09-10T05:08:28.098Z,12.76
2022-09-10T05:09:28.676Z,12.71
2022-09-10T05:10:28.334Z,12.76
2022-09-10T05:11:28.326Z,12.77
2022-09-10T05:12:28.315Z,12.8
2022-09-10T05:13:28.049Z,12.8
2022-09-10T05:14:28.294Z,12.84
2022-09-10T05:15:28.286Z,12.89
2022-09-10T05:16:28.229Z,12.86
2022-09-10T05:17:28.009Z,12.88
2022-09-10T05:18:28.256Z,12.88
2022-09-10T05:19:28.246Z,12.94
2022-09-10T05:20:28.250Z,12.92
2022-09-10T05:21:28.227Z,12.89
2022-09-10T05:22:40.229Z,12.88
2022-09-10T05:23:27.955Z,12.91
2022-09-10T05:24:28.196Z,12.92
2022-09-10T05:25:28.578Z,12.98
2022-09-10T05:26:28.447Z,12.98
2022-09-10T05:27:28.172Z,12.95
2022-09-10T05:28:28.418Z,13.01
2022-09-10T05:29:28.419Z,13.1
2022-09-10T05:30:27.883Z,13.02
2022-09-10T05:31:28.302Z,13.13
2022-09-10T05:32:28.378Z,13.09
2022-09-10T05:33:28.111Z,13.21
2022-09-10T05:34:28.101Z,13.16
2022-09-10T05:35:28.091Z,13.14
2022-09-10T05:36:28.089Z,13.19
2022-09-10T05:37:28.078Z,13.24
2022-09-10T05:38:28.197Z,13.2
2022-09-10T05:39:28.054Z,13.27
2022-09-10T05:40:28.047Z,13.35
2022-09-10T05:41:28.363Z,13.32
2022-09-10T05:42:27.807Z,13.39
2022-09-10T05:43:28.014Z,13.39
2022-09-10T05:44:28.005Z,13.39
2022-09-10T05:45:27.812Z,13.45
2022-09-10T05:46:27.733Z,13.42
2022-09-10T05:47:28.239Z,13.51
2022-09-10T05:48:28.025Z,13.57
2022-09-10T05:49:28.214Z,13.54
2022-09-10T05:50:27.693Z,13.55
2022-09-10T05:51:28.200Z,13.53
2022-09-10T05:52:27.678Z,13.63
2022-09-10T05:53:28.176Z,13.58
2022-09-10T05:54:28.026Z,13.65
2022-09-10T05:55:27.998Z,13.62
2022-09-10T05:56:28.001Z,13.57
2022-09-10T05:57:28.288Z,13.63
2022-09-10T05:58:28.008Z,13.66
2022-09-10T05:59:27.891Z,13.66
2022-09-10T06:00:27.934Z,13.62
2022-09-10T06:01:27.905Z,13.63
2022-09-10T06:02:29.488Z,13.66
2022-09-10T06:03:28.764Z,13.54
2022-09-10T06:04:27.818Z,13.58
2022-09-10T06:05:28.194Z,13.62
2022-09-10T06:06:28.128Z,13.58
2022-09-10T06:07:28.168Z,13.63
2022-09-10T06:08:27.857Z,13.58
2022-09-10T06:09:27.807Z,13.66
2022-09-10T06:10:27.893Z,13.68
2022-09-10T06:11:28.105Z,13.69
2022-09-10T06:12:27.862Z,13.78
2022-09-10T06:13:28.194Z,13.81
2022-09-10T06:14:27.791Z,13.9
2022-09-10T06:15:28.098Z,14.01
2022-09-10T06:16:27.933Z,14.06
2022-09-10T06:17:27.961Z,14.05
2022-09-10T06:18:27.948Z,14.13
2022-09-10T06:19:27.937Z,14.13
2022-09-10T06:20:27.474Z,14.15
2022-09-10T06:21:32.713Z,14.24
2022-09-10T06:22:27.398Z,14.28
2022-09-10T06:23:27.905Z,14.33
2022-09-10T06:24:27.650Z,14.48
2022-09-10T06:25:27.632Z,14.48
2022-09-10T06:26:27.619Z,14.52
2022-09-10T06:27:27.617Z,14.49
2022-09-10T06:28:27.611Z,14.64
2022-09-10T06:29:27.923Z,14.67
2022-09-10T06:30:27.738Z,14.7
2022-09-10T06:31:27.325Z,14.85
2022-09-10T06:32:27.830Z,14.85
2022-09-10T06:33:27.304Z,15.04
2022-09-10T06:34:27.550Z,15.13
2022-09-10T06:35:27.547Z,15.23
2022-09-10T06:36:27.540Z,15.3
2022-09-10T06:37:27.793Z,15.44
2022-09-10T06:38:27.784Z,15.51
2022-09-10T06:39:27.517Z,15.52
2022-09-10T06:40:27.828Z,15.45
2022-09-10T06:41:27.509Z,15.49
2022-09-10T06:42:27.743Z,15.43
2022-09-10T06:43:27.477Z,15.38
2022-09-10T06:44:27.745Z,15.44
2022-09-10T06:45:27.833Z,15.51
2022-09-10T06:48:55.653Z,15.38
2022-09-10T06:49:54.703Z,15.37
2022-09-10T06:50:54.951Z,15.41
2022-09-10T06:51:54.688Z,15.4
2022-09-10T06:52:54.682Z,15.51
2022-09-10T06:53:54.935Z,15.51
2022-09-10T06:54:54.921Z,15.52
2022-09-10T06:55:54.401Z,15.49
2022-09-10T06:56:54.917Z,15.4
2022-09-10T06:57:54.645Z,15.41
2022-09-10T06:58:54.889Z,15.34
2022-09-10T06:59:54.885Z,15.37
2022-09-10T07:00:55.182Z,15.3
2022-09-10T07:01:54.751Z,15.31
2022-09-10T07:02:54.606Z,15.25
2022-09-10T07:03:54.853Z,15.2
2022-09-10T07:04:54.592Z,15.25
2022-09-10T07:05:54.838Z,15.25
2022-09-10T07:06:54.315Z,15.2
2022-09-10T07:07:54.821Z,15.23
2022-09-10T07:08:54.570Z,15.23
2022-09-10T07:09:54.294Z,15.22
2022-09-10T07:10:54.796Z,15.3
2022-09-10T07:11:54.794Z,15.37
2022-09-10T07:12:54.273Z,15.33
2022-09-10T07:13:54.523Z,15.31
2022-09-10T07:14:54.520Z,15.34
2022-09-10T07:15:54.885Z,15.38
2022-09-10T07:16:54.830Z,15.47
2022-09-10T07:17:54.236Z,15.6
2022-09-10T07:18:54.487Z,15.6
2022-09-10T07:19:54.484Z,15.71
2022-09-10T07:20:54.726Z,15.75
2022-09-10T07:21:54.465Z,15.74
2022-09-10T07:22:54.763Z,15.77
2022-09-10T07:23:54.930Z,15.88
2022-09-10T07:24:54.434Z,16.02
2022-09-10T07:25:54.691Z,16.04
2022-09-10T07:26:54.426Z,16.16
2022-09-10T07:27:54.415Z,16.26
2022-09-10T07:28:54.150Z,16.29
2022-09-10T07:29:54.399Z,16.29
2022-09-10T07:30:54.267Z,16.44
2022-09-10T07:31:54.388Z,16.48
2022-09-10T07:32:54.711Z,16.39
2022-09-10T07:33:54.639Z,16.44
2022-09-10T07:34:54.108Z,16.42
2022-09-10T07:35:54.362Z,16.39
2022-09-10T07:36:54.094Z,16.3
2022-09-10T07:37:54.608Z,16.34
2022-09-10T07:38:54.080Z,16.3
2022-09-10T07:39:54.504Z,16.26
2022-09-10T07:40:54.331Z,16.21
2022-09-10T07:41:54.320Z,16.06
2022-09-10T07:42:54.308Z,15.98
2022-09-10T07:43:54.303Z,15.81
2022-09-10T07:44:54.553Z,15.83
2022-09-10T07:45:54.229Z,15.86
2022-09-10T07:46:54.025Z,15.77
2022-09-10T07:47:54.283Z,15.73
2022-09-10T07:48:54.611Z,15.68
2022-09-10T07:49:54.008Z,15.65
2022-09-10T07:50:54.258Z,15.55
2022-09-10T07:51:59.916Z,15.45
2022-09-10T07:52:54.256Z,15.44
2022-09-10T07:53:55.514Z,15.37
2022-09-10T07:54:54.244Z,15.38
2022-09-10T07:55:54.477Z,15.37
2022-09-10T07:56:54.212Z,15.37
2022-09-10T07:57:57.238Z,15.35
2022-09-10T07:58:54.461Z,15.34
2022-09-10T07:59:54.451Z,15.37
2022-09-10T08:00:54.438Z,15.35
2022-09-10T08:01:54.323Z,15.41
2022-09-10T08:02:54.173Z,15.43
2022-09-10T08:03:53.903Z,15.43
2022-09-10T08:04:54.641Z,15.38
2022-09-10T08:05:54.146Z,15.41
2022-09-10T08:06:54.405Z,15.38
2022-09-10T08:07:53.876Z,15.47
2022-09-10T08:08:53.877Z,15.44
2022-09-10T08:09:53.857Z,15.47
2022-09-10T08:10:54.367Z,15.43
2022-09-10T08:11:53.845Z,15.44
2022-09-10T08:12:54.095Z,15.44
2022-09-10T08:13:54.100Z,15.44
2022-09-10T08:14:54.079Z,15.45
2022-09-10T08:15:54.453Z,15.45
2022-09-10T08:16:53.808Z,15.4
2022-09-10T08:17:54.316Z,15.4
2022-09-10T08:18:54.308Z,15.37
2022-09-10T08:19:54.043Z,15.41
2022-09-10T08:20:54.381Z,15.51
2022-09-10T08:21:54.029Z,15.44
2022-09-10T08:22:54.283Z,15.41
2022-09-10T08:23:54.032Z,15.41
2022-09-10T08:24:53.803Z,15.53
2022-09-10T08:25:54.262Z,15.68
2022-09-10T08:26:53.999Z,15.73
2022-09-10T08:27:53.983Z,15.89
2022-09-10T08:28:53.979Z,15.99
2022-09-10T08:29:54.231Z,16.06
2022-09-10T08:30:54.046Z,16.16
2022-09-10T08:31:53.955Z,16.18
2022-09-10T08:32:53.948Z,16.25
2022-09-10T08:33:54.195Z,16.27
2022-09-10T08:34:54.190Z,16.36
2022-09-10T08:35:53.926Z,16.22
2022-09-10T08:36:54.319Z,16.06
2022-09-10T08:37:54.167Z,16.07
2022-09-10T08:38:57.123Z,15.99
2022-09-10T08:39:54.074Z,15.91
2022-09-10T08:40:54.156Z,15.86
2022-09-10T08:41:53.629Z,15.91
2022-09-10T08:42:54.138Z,15.98
2022-09-10T08:43:54.135Z,16.07
2022-09-10T08:44:54.119Z,16.08
2022-09-10T08:45:53.788Z,16.16
2022-09-10T08:46:53.851Z,16.29
2022-09-10T08:47:53.583Z,16.3
2022-09-10T08:48:53.843Z,16.33
2022-09-10T08:49:54.086Z,16.42
2022-09-10T08:50:53.824Z,16.42
2022-09-10T08:51:54.073Z,16.4
2022-09-10T08:52:54.143Z,16.32
2022-09-10T08:53:53.807Z,16.32
2022-09-10T08:54:53.538Z,16.32
2022-09-10T08:55:53.786Z,16.3
2022-09-10T08:56:53.531Z,16.26
2022-09-10T08:57:54.034Z,16.33
2022-09-10T08:58:53.767Z,16.45
2022-09-10T08:59:53.763Z,16.63
2022-09-10T09:00:53.765Z,16.82
2022-09-10T09:01:54.466Z,16.85
2022-09-10T09:02:54.999Z,16.99
2022-09-10T09:03:53.483Z,16.95
2022-09-10T09:04:53.997Z,16.9
2022-09-10T09:05:53.977Z,16.85
2022-09-10T09:06:53.456Z,16.94
2022-09-10T09:07:53.707Z,16.94
2022-09-10T09:08:54.031Z,17.06
2022-09-10T09:09:53.958Z,16.92
2022-09-10T09:10:53.956Z,17.03
2022-09-10T09:11:53.683Z,17.18
2022-09-10T09:12:53.675Z,17.35
2022-09-10T09:13:53.410Z,17.47
2022-09-10T09:14:53.664Z,17.54
2022-09-10T09:15:54.185Z,17.58
2022-09-10T09:16:53.398Z,17.55
2022-09-10T09:17:53.906Z,17.42
2022-09-10T09:18:53.377Z,17.43
2022-09-10T09:19:53.380Z,17.4
2022-09-10T09:20:53.368Z,17.49
2022-09-10T09:21:53.631Z,17.42
2022-09-10T09:22:53.610Z,17.49
2022-09-10T09:24:17.072Z,17.49
2022-09-10T09:24:53.633Z,17.6
2022-09-10T09:25:53.603Z,17.66
2022-09-10T09:26:53.848Z,17.6
2022-09-10T09:27:53.332Z,17.58
2022-09-10T09:28:53.579Z,17.49
2022-09-10T09:29:53.570Z,17.5
2022-09-10T09:30:53.795Z,17.5
2022-09-10T09:31:53.563Z,17.46
2022-09-10T09:32:53.300Z,17.5
2022-09-10T09:33:53.549Z,17.42
2022-09-10T09:34:53.561Z,17.58
2022-09-10T09:35:53.540Z,17.8
2022-09-10T09:36:53.534Z,17.86
2022-09-10T09:37:53.271Z,17.94
2022-09-10T09:38:53.522Z,17.99
2022-09-10T09:39:53.765Z,18.03
2022-09-10T09:40:53.792Z,18.05
2022-09-10T09:41:53.504Z,18.06
2022-09-10T09:42:53.240Z,17.95
2022-09-10T09:43:53.502Z,17.88
2022-09-10T09:44:59.019Z,17.87
2022-09-10T09:45:53.623Z,17.86
2022-09-10T09:46:53.732Z,17.9
2022-09-10T09:47:53.555Z,17.94
2022-09-10T09:48:53.717Z,17.95
2022-09-10T09:49:53.714Z,17.94
2022-09-10T09:50:53.461Z,17.94
2022-09-10T09:51:53.708Z,18.01
2022-09-10T09:52:53.456Z,17.9
2022-09-10T09:55:03.473Z,17.81
2022-09-10T09:55:24.576Z,17.79
2022-09-10T09:56:24.807Z,17.74
2022-09-10T09:57:24.515Z,17.74
2022-09-10T09:58:24.510Z,17.73
2022-09-10T09:59:24.506Z,17.74
2022-09-10T10:00:24.760Z,17.77
2022-09-10T10:01:24.984Z,17.68
2022-09-10T10:02:24.605Z,17.65
2022-09-10T10:03:24.742Z,17.73
2022-09-10T10:04:24.219Z,17.71
2022-09-10T10:05:24.474Z,17.77
2022-09-10T10:06:24.464Z,17.71
2022-09-10T10:07:24.726Z,17.73
2022-09-10T10:08:24.717Z,17.71
2022-09-10T10:09:24.447Z,17.73
2022-09-10T10:10:24.190Z,17.83
2022-09-10T10:11:24.491Z,17.84
2022-09-10T10:12:24.459Z,17.86
2022-09-10T10:13:24.428Z,17.86
2022-09-10T10:14:24.686Z,17.8
2022-09-10T10:15:24.423Z,17.69
2022-09-10T10:16:24.412Z,17.62
2022-09-10T10:17:24.149Z,17.46
2022-09-10T10:18:24.400Z,17.49
2022-09-10T10:19:24.654Z,17.36
2022-09-10T10:20:24.134Z,17.38
2022-09-10T10:21:24.664Z,17.52
2022-09-10T10:22:24.119Z,17.57
2022-09-10T10:23:27.087Z,17.58
2022-09-10T10:24:24.368Z,17.66
2022-09-10T10:25:24.618Z,17.66
2022-09-10T10:26:24.361Z,17.63
2022-09-10T10:27:24.400Z,17.83
2022-09-10T10:28:24.632Z,17.9
2022-09-10T10:29:24.347Z,18.03
2022-09-10T10:30:24.335Z,18.19
2022-09-10T10:31:24.440Z,18.24
2022-09-10T10:32:24.587Z,18.24
2022-09-10T10:33:24.060Z,18.31
2022-09-10T10:34:24.051Z,18.42
2022-09-10T10:35:24.049Z,18.44
2022-09-10T10:36:24.301Z,18.57
2022-09-10T10:37:24.552Z,18.47
2022-09-10T10:38:24.292Z,18.45
2022-09-10T10:39:24.290Z,18.29
2022-09-10T10:40:24.279Z,18.34
2022-09-10T10:41:24.533Z,18.23
2022-09-10T10:42:24.531Z,18.27
2022-09-10T10:43:24.325Z,18.27
2022-09-10T10:44:24.658Z,18.24
2022-09-10T10:45:24.258Z,18.23
2022-09-10T10:46:24.396Z,18.16
2022-09-10T10:47:24.242Z,18.14
2022-09-10T10:48:24.500Z,18.17
2022-09-10T10:49:24.246Z,18.06
2022-09-10T10:50:24.494Z,18.19
2022-09-10T10:51:24.219Z,18.24
2022-09-10T10:52:24.219Z,18.32
2022-09-10T10:53:23.947Z,18.34
2022-09-10T10:54:24.232Z,18.41
2022-09-10T10:55:24.202Z,18.49
2022-09-10T10:56:24.457Z,18.54
2022-09-10T10:57:24.447Z,18.65
2022-09-10T10:58:24.439Z,18.69
2022-09-10T10:59:24.240Z,18.91
2022-09-10T11:00:24.202Z,18.9
2022-09-10T11:01:24.556Z,19.05
2022-09-10T11:02:24.387Z,18.9
2022-09-10T11:03:24.156Z,18.96
2022-09-10T11:04:24.502Z,18.76
2022-09-10T11:05:24.410Z,18.78
2022-09-10T11:06:24.403Z,18.91
2022-09-10T11:07:24.403Z,19.05
2022-09-10T11:08:24.390Z,19.19
2022-09-10T11:09:23.885Z,19.13
2022-09-10T11:10:24.129Z,19.25
2022-09-10T11:11:24.373Z,19.4
2022-09-10T11:12:24.114Z,19.49
2022-09-10T11:13:24.118Z,19.63
2022-09-10T11:14:24.109Z,19.79
2022-09-10T11:15:24.149Z,19.89
2022-09-10T11:16:24.122Z,19.95
2022-09-10T11:17:24.347Z,20.02
2022-09-10T11:18:24.353Z,20.04
2022-09-10T11:19:23.820Z,20
2022-09-10T11:20:39.845Z,19.98
2022-09-10T11:21:24.070Z,19.89
2022-09-10T11:22:23.811Z,20.02
2022-09-10T11:23:23.805Z,20.07
2022-09-10T11:24:24.058Z,20.07
2022-09-10T11:25:24.314Z,20.15
2022-09-10T11:26:23.795Z,20.27
2022-09-10T11:27:24.047Z,20.51
2022-09-10T11:28:24.083Z,20.61
2022-09-10T11:29:23.786Z,20.71
2022-09-10T11:30:24.293Z,20.67
2022-09-10T11:31:24.206Z,20.64
2022-09-10T11:32:24.327Z,20.56
2022-09-10T11:33:24.285Z,20.46
2022-09-10T11:34:24.017Z,20.37
2022-09-10T11:35:23.763Z,20.26
2022-09-10T11:36:24.008Z,20.16
2022-09-10T11:37:24.006Z,20.26
2022-09-10T11:38:24.006Z,20.23
2022-09-10T11:39:23.761Z,20.29
2022-09-10T11:40:23.737Z,20.3
2022-09-10T11:41:23.740Z,20.44
2022-09-10T11:42:24.040Z,20.41
2022-09-10T11:43:23.987Z,20.49
2022-09-10T11:44:24.236Z,20.48
2022-09-10T11:45:23.721Z,20.3
2022-09-10T11:46:24.143Z,20.27
2022-09-10T11:47:24.279Z,20.18
2022-09-10T11:48:24.248Z,20.23
2022-09-10T11:49:24.217Z,20.23
2022-09-10T11:50:23.955Z,20.15
2022-09-10T11:51:24.213Z,20.2
2022-09-10T11:52:23.958Z,20.07
2022-09-10T11:53:24.214Z,20.05
2022-09-10T11:54:23.689Z,20.04
2022-09-10T11:55:23.962Z,19.86
2022-09-10T11:56:24.201Z,19.8
2022-09-10T11:57:23.935Z,19.7
2022-09-10T11:58:23.928Z,19.65
2022-09-10T11:59:23.669Z,19.53
2022-09-10T12:00:23.914Z,19.56
2022-09-10T12:01:24.175Z,19.46
2022-09-10T12:02:24.108Z,19.49
2022-09-10T12:03:24.375Z,19.4
2022-09-10T12:04:24.189Z,19.28
2022-09-10T12:05:23.900Z,19.2
2022-09-10T12:06:23.635Z,19.23
2022-09-10T12:07:23.906Z,19.13
2022-09-10T12:08:23.883Z,18.93
2022-09-10T12:09:24.144Z,18.89
2022-09-10T12:10:23.619Z,18.78
2022-09-10T12:11:24.129Z,18.61
2022-09-10T12:12:23.925Z,18.49
2022-09-10T12:13:24.118Z,18.47
2022-09-10T12:14:24.136Z,18.35
2022-09-10T12:15:23.855Z,18.31
2022-09-10T12:16:24.264Z,18.31
2022-09-10T12:17:23.843Z,18.23
2022-09-10T12:18:23.835Z,18.23
2022-09-10T12:19:23.887Z,18.17
2022-09-10T12:20:24.118Z,18.17
2022-09-10T12:21:23.565Z,18.27
2022-09-10T12:22:23.823Z,18.32
2022-09-10T12:23:24.076Z,18.44
2022-09-10T12:24:23.817Z,18.44
2022-09-10T12:25:23.801Z,18.42
2022-09-10T12:26:23.808Z,18.51
2022-09-10T12:27:24.053Z,18.56
2022-09-10T12:28:23.796Z,18.54
2022-09-10T12:29:24.044Z,18.57
2022-09-10T12:30:23.785Z,18.65
2022-09-10T12:31:24.026Z,18.66
2022-09-10T12:32:24.034Z,18.66
2022-09-10T12:33:23.769Z,18.53
2022-09-10T12:34:23.770Z,18.39
2022-09-10T12:35:23.812Z,18.49
2022-09-10T12:36:24.036Z,18.41
2022-09-10T12:37:23.750Z,18.44
2022-09-10T12:38:24.004Z,18.53
2022-09-10T12:39:23.484Z,18.66
2022-09-10T12:40:24.188Z,18.69
2022-09-10T12:41:23.730Z,18.81
2022-09-10T12:42:23.982Z,18.97
2022-09-10T12:43:23.463Z,19.06
2022-09-10T12:44:23.727Z,19.16
2022-09-10T12:45:23.716Z,19.17
2022-09-10T12:46:23.896Z,19.23
2022-09-10T12:47:23.441Z,19.23
2022-09-10T12:48:29.242Z,19.37
2022-09-10T12:49:23.956Z,19.35
2022-09-10T12:50:23.687Z,19.5
2022-09-10T12:51:23.732Z,19.47
2022-09-10T12:52:23.786Z,19.52
2022-09-10T12:53:23.671Z,19.56
2022-09-10T12:54:23.925Z,19.53
2022-09-10T12:55:23.417Z,19.56
2022-09-10T12:56:23.920Z,19.63
2022-09-10T12:57:23.919Z,19.72
2022-09-10T12:58:25.069Z,19.7
2022-09-10T12:59:23.649Z,19.68
2022-09-10T13:00:23.648Z,19.75
2022-09-10T13:01:24.295Z,19.7
2022-09-10T13:02:24.029Z,19.55
2022-09-10T13:03:23.635Z,19.57
2022-09-10T13:04:23.372Z,19.43
2022-09-10T13:05:23.622Z,19.47
2022-09-10T13:06:23.620Z,19.37
2022-09-10T13:07:23.679Z,19.23
2022-09-10T13:08:23.902Z,19.16
2022-09-10T13:09:23.359Z,19.09
2022-09-10T13:10:26.635Z,18.97
2022-09-10T13:11:23.858Z,18.93
2022-09-10T13:12:23.597Z,18.87
2022-09-10T13:13:23.333Z,18.78
2022-09-10T13:14:23.580Z,18.72